»·PEaware :: N211BA KVNY-KPSP

N211BA :: KVNY-KPSP

FLIGHT INFORMATION

Flight Status: Arrived
Operator: Privately registered:
United States
More flights under this callsign
Pilot: Walter H. (552)
Aircraft: AERO SPACELINES SUPPER GUPPY
(SGUP)
More flights by this aircraft type
Origin: KVNY Van Nuys
United States
Destination: KPSP Palm Springs Intl
United States
More flights between these airports :: More routes between these airports
Route: +
File this flight plan on PilotEdge
Remarks:
Altitude:
(Current/Filed)
0ft
Speed:
(Current/Filed)
0kts
Departed: 28-Jul-15 03:57 PM
Arrived: 28-Jul-15 04:30 PM
Distance/Time
Traveled:
101nm/0:32
Distance/Time
To Go:
Arrived

Flight Plot

Page will automatically refresh every two minutes.


Map Options




Map Legend


Flown Route
Filed Route
Departure Airport
Arrival Airport
Navaid (VOR, NDB)
Fix

Horizontal Profiles

Position Reports

Time Latitude Longitude Heading Altitude Ground
Speed
28-Jul-15 16:00 34.206650 -118.487498 175 811ft 0kts
28-Jul-15 16:01 34.206650 -118.487498 175 811ft 0kts
28-Jul-15 16:02 34.206650 -118.487498 175 811ft 0kts
28-Jul-15 16:03 34.206649 -118.487498 174 811ft 0kts
28-Jul-15 16:04 34.206648 -118.487498 174 811ft 0kts
28-Jul-15 16:05 34.207468 -118.488212 356 811ft 13kts
28-Jul-15 16:06 34.213931 -118.488845 355 811ft 24kts
28-Jul-15 16:07 34.218219 -118.489393 295 811ft 4kts
28-Jul-15 16:08 34.217950 -118.491163 177 811ft 0kts
28-Jul-15 16:08 34.202632 -118.489737 175 829ft 127kts
28-Jul-15 16:09 34.168435 -118.468007 84 1595ft 181kts
28-Jul-15 16:10 34.182269 -118.409970 85 2573ft 185kts
28-Jul-15 16:11 34.172272 -118.347809 108 3367ft 194kts
28-Jul-15 16:12 34.152888 -118.285648 99 4108ft 199kts
28-Jul-15 16:13 34.144783 -118.219368 97 4960ft 198kts
28-Jul-15 16:14 34.136755 -118.153542 97 5679ft 197kts
28-Jul-15 16:15 34.128659 -118.088374 97 6428ft 196kts
28-Jul-15 16:16 34.120633 -118.022967 97 7049ft 197kts
28-Jul-15 16:17 34.112241 -117.956567 97 7501ft 209kts
28-Jul-15 16:18 34.101925 -117.883128 97 7513ft 233kts
28-Jul-15 16:19 34.090945 -117.804209 97 7509ft 241kts
28-Jul-15 16:20 34.079749 -117.723343 97 7504ft 249kts
28-Jul-15 16:21 34.068333 -117.640570 97 7494ft 252kts
28-Jul-15 16:22 34.057141 -117.557703 97 7492ft 249kts
28-Jul-15 16:23 34.043632 -117.476299 104 7495ft 248kts
28-Jul-15 16:24 34.024479 -117.396516 106 7494ft 248kts
28-Jul-15 16:25 34.002923 -117.317778 106 7496ft 248kts
28-Jul-15 16:26 33.983596 -117.239246 103 7503ft 242kts
28-Jul-15 16:27 33.967900 -117.160674 99 7512ft 242kts
28-Jul-15 16:28 33.957683 -117.081006 97 7527ft 239kts
28-Jul-15 16:29 33.948086 -117.002092 97 7546ft 236kts
28-Jul-15 16:30 33.938598 -116.924184 97 7532ft 236kts
28-Jul-15 16:31 33.929109 -116.845205 95 7180ft 243kts
28-Jul-15 16:32 33.921644 -116.763966 95 6578ft 242kts
28-Jul-15 16:33 33.913928 -116.682531 95 5727ft 250kts
28-Jul-15 16:34 33.905762 -116.597491 95 4556ft 257kts
28-Jul-15 16:35 33.901347 -116.512756 74 3406ft 249kts
28-Jul-15 16:36 33.949390 -116.478805 325 2583ft 217kts
28-Jul-15 16:37 33.939880 -116.531336 215 2501ft 175kts
28-Jul-15 16:38 33.895809 -116.543749 181 2097ft 160kts
28-Jul-15 16:39 33.858619 -116.533745 143 1285ft 117kts
28-Jul-15 16:41 33.833646 -116.511109 142 524ft 108kts
28-Jul-15 16:42 33.823050 -116.502637 254 486ft 0kts
28-Jul-15 16:43 33.825128 -116.505356 323 486ft 23kts
28-Jul-15 16:44 33.829345 -116.509372 271 486ft 6kts
28-Jul-15 16:45 33.829041 -116.512179 135 486ft 2kts
28-Jul-15 16:46 33.829003 -116.512037 90 486ft 0kts
28-Jul-15 16:47 33.829003 -116.512037 90 486ft 0kts
28-Jul-15 16:48 33.829003 -116.512037 90 486ft 0kts
28-Jul-15 16:49 33.829003 -116.512037 90 486ft 0kts
28-Jul-15 16:50 33.829003 -116.512037 90 486ft 0kts

Navigation Log

Ident Type
Flight plan parsing failed, navigation log unavailable